sensor_id;sensor_type;location;lat;lon;timestamp;P1;durP1;ratioP1;P2;durP2;ratioP2
68806;SDS011;55800;54.272;18.558;2022-12-18T00:02:14;45.78;;;25.35;;
68806;SDS011;55800;54.272;18.558;2022-12-18T00:07:13;46.00;;;26.57;;
68806;SDS011;55800;54.272;18.558;2022-12-18T00:09:43;55.33;;;31.00;;
68806;SDS011;55800;54.272;18.558;2022-12-18T00:12:14;59.90;;;26.83;;
68806;SDS011;55800;54.272;18.558;2022-12-18T00:14:49;52.07;;;24.50;;
68806;SDS011;55800;54.272;18.558;2022-12-18T00:17:18;48.85;;;24.73;;
68806;SDS011;55800;54.272;18.558;2022-12-18T00:19:48;49.90;;;24.90;;
68806;SDS011;55800;54.272;18.558;2022-12-18T00:22:17;52.88;;;25.17;;
68806;SDS011;55800;54.272;18.558;2022-12-18T00:24:47;50.75;;;23.90;;
68806;SDS011;55800;54.272;18.558;2022-12-18T00:27:17;46.57;;;24.13;;
68806;SDS011;55800;54.272;18.558;2022-12-18T00:29:47;45.70;;;26.27;;
68806;SDS011;55800;54.272;18.558;2022-12-18T00:32:17;47.05;;;18.55;;
68806;SDS011;55800;54.272;18.558;2022-12-18T00:34:46;44.42;;;21.95;;
68806;SDS011;55800;54.272;18.558;2022-12-18T00:37:15;32.60;;;18.48;;
68806;SDS011;55800;54.272;18.558;2022-12-18T00:39:50;32.70;;;18.73;;
68806;SDS011;55800;54.272;18.558;2022-12-18T00:42:21;30.88;;;17.63;;
68806;SDS011;55800;54.272;18.558;2022-12-18T00:45:08;41.77;;;19.07;;
68806;SDS011;55800;54.272;18.558;2022-12-18T00:47:39;38.87;;;20.00;;
68806;SDS011;55800;54.272;18.558;2022-12-18T00:50:09;35.47;;;17.30;;
68806;SDS011;55800;54.272;18.558;2022-12-18T00:52:38;20.73;;;14.80;;
68806;SDS011;55800;54.272;18.558;2022-12-18T00:55:08;27.45;;;14.77;;
68806;SDS011;55800;54.272;18.558;2022-12-18T00:57:38;33.22;;;16.17;;
68806;SDS011;55800;54.272;18.558;2022-12-18T01:00:10;28.30;;;14.77;;
68806;SDS011;55800;54.272;18.558;2022-12-18T01:02:41;27.13;;;15.57;;
68806;SDS011;55800;54.272;18.558;2022-12-18T01:05:12;30.63;;;17.75;;
68806;SDS011;55800;54.272;18.558;2022-12-18T01:07:42;19.47;;;15.20;;
68806;SDS011;55800;54.272;18.558;2022-12-18T01:10:11;29.00;;;14.05;;
68806;SDS011;55800;54.272;18.558;2022-12-18T01:12:43;30.50;;;17.98;;
68806;SDS011;55800;54.272;18.558;2022-12-18T01:15:13;38.27;;;15.67;;
68806;SDS011;55800;54.272;18.558;2022-12-18T01:17:43;28.23;;;13.75;;
68806;SDS011;55800;54.272;18.558;2022-12-18T01:20:12;28.08;;;16.23;;
68806;SDS011;55800;54.272;18.558;2022-12-18T01:22:42;29.67;;;17.80;;
68806;SDS011;55800;54.272;18.558;2022-12-18T01:25:11;30.90;;;15.35;;
68806;SDS011;55800;54.272;18.558;2022-12-18T01:27:43;34.97;;;19.53;;
68806;SDS011;55800;54.272;18.558;2022-12-18T01:30:13;40.27;;;19.80;;
68806;SDS011;55800;54.272;18.558;2022-12-18T01:32:42;41.15;;;18.23;;
68806;SDS011;55800;54.272;18.558;2022-12-18T01:35:12;37.90;;;19.23;;
68806;SDS011;55800;54.272;18.558;2022-12-18T01:37:41;38.23;;;18.80;;
68806;SDS011;55800;54.272;18.558;2022-12-18T01:40:11;30.75;;;15.25;;
68806;SDS011;55800;54.272;18.558;2022-12-18T01:42:40;37.63;;;15.85;;
68806;SDS011;55800;54.272;18.558;2022-12-18T01:45:25;39.10;;;17.73;;
68806;SDS011;55800;54.272;18.558;2022-12-18T01:47:57;37.93;;;17.63;;
68806;SDS011;55800;54.272;18.558;2022-12-18T01:50:30;32.27;;;18.33;;
68806;SDS011;55800;54.272;18.558;2022-12-18T01:53:02;31.83;;;18.97;;
68806;SDS011;55800;54.272;18.558;2022-12-18T01:55:35;31.73;;;16.53;;
68806;SDS011;55800;54.272;18.558;2022-12-18T01:58:11;36.53;;;16.63;;
68806;SDS011;55800;54.272;18.558;2022-12-18T02:03:12;35.50;;;14.57;;
68806;SDS011;55800;54.272;18.558;2022-12-18T02:05:45;30.57;;;16.43;;
68806;SDS011;55800;54.272;18.558;2022-12-18T02:08:19;35.10;;;18.13;;
68806;SDS011;55800;54.272;18.558;2022-12-18T02:10:54;36.33;;;19.33;;
68806;SDS011;55800;54.272;18.558;2022-12-18T02:13:36;45.80;;;18.43;;
68806;SDS011;55800;54.272;18.558;2022-12-18T02:16:16;36.40;;;16.60;;
68806;SDS011;55800;54.272;18.558;2022-12-18T02:18:58;33.70;;;17.83;;
68806;SDS011;55800;54.272;18.558;2022-12-18T02:21:51;34.50;;;17.53;;
68806;SDS011;55800;54.272;18.558;2022-12-18T02:24:33;29.47;;;17.23;;
68806;SDS011;55800;54.272;18.558;2022-12-18T02:27:10;39.37;;;19.30;;
68806;SDS011;55800;54.272;18.558;2022-12-18T02:29:42;40.10;;;20.80;;
68806;SDS011;55800;54.272;18.558;2022-12-18T02:32:24;40.43;;;18.70;;
68806;SDS011;55800;54.272;18.558;2022-12-18T02:34:55;35.83;;;18.33;;
68806;SDS011;55800;54.272;18.558;2022-12-18T02:37:28;44.67;;;18.67;;
68806;SDS011;55800;54.272;18.558;2022-12-18T02:40:01;34.03;;;16.43;;
68806;SDS011;55800;54.272;18.558;2022-12-18T02:42:37;33.27;;;16.83;;
68806;SDS011;55800;54.272;18.558;2022-12-18T02:45:08;38.50;;;17.30;;
68806;SDS011;55800;54.272;18.558;2022-12-18T02:47:39;39.73;;;21.20;;
68806;SDS011;55800;54.272;18.558;2022-12-18T02:50:13;37.17;;;20.90;;
68806;SDS011;55800;54.272;18.558;2022-12-18T02:52:56;46.67;;;19.43;;
68806;SDS011;55800;54.272;18.558;2022-12-18T02:55:42;31.67;;;16.70;;
68806;SDS011;55800;54.272;18.558;2022-12-18T02:58:26;32.20;;;16.33;;
68806;SDS011;55800;54.272;18.558;2022-12-18T03:01:07;42.90;;;17.67;;
68806;SDS011;55800;54.272;18.558;2022-12-18T03:03:43;32.43;;;17.27;;
68806;SDS011;55800;54.272;18.558;2022-12-18T03:06:20;39.63;;;18.57;;
68806;SDS011;55800;54.272;18.558;2022-12-18T03:08:54;35.70;;;19.77;;
68806;SDS011;55800;54.272;18.558;2022-12-18T03:11:28;36.80;;;18.87;;
68806;SDS011;55800;54.272;18.558;2022-12-18T03:14:20;39.23;;;18.57;;
68806;SDS011;55800;54.272;18.558;2022-12-18T03:16:52;38.90;;;19.30;;
68806;SDS011;55800;54.272;18.558;2022-12-18T03:19:27;45.37;;;19.87;;
68806;SDS011;55800;54.272;18.558;2022-12-18T03:22:02;41.80;;;20.07;;
68806;SDS011;55800;54.272;18.558;2022-12-18T03:24:42;36.10;;;17.10;;
68806;SDS011;55800;54.272;18.558;2022-12-18T03:27:14;30.47;;;16.33;;
68806;SDS011;55800;54.272;18.558;2022-12-18T03:29:51;31.90;;;15.13;;
68806;SDS011;55800;54.272;18.558;2022-12-18T03:33:50;25.90;;;14.90;;
68806;SDS011;55800;54.272;18.558;2022-12-18T03:36:28;26.13;;;15.10;;
68806;SDS011;55800;54.272;18.558;2022-12-18T03:38:58;28.50;;;15.10;;
68806;SDS011;55800;54.272;18.558;2022-12-18T03:41:29;27.73;;;14.37;;
68806;SDS011;55800;54.272;18.558;2022-12-18T03:44:25;21.53;;;13.67;;
68806;SDS011;55800;54.272;18.558;2022-12-18T03:47:03;25.17;;;14.07;;
68806;SDS011;55800;54.272;18.558;2022-12-18T03:49:37;21.23;;;13.23;;
68806;SDS011;55800;54.272;18.558;2022-12-18T03:52:15;16.10;;;10.33;;
68806;SDS011;55800;54.272;18.558;2022-12-18T03:54:52;32.80;;;14.07;;
68806;SDS011;55800;54.272;18.558;2022-12-18T03:57:25;29.77;;;14.83;;
68806;SDS011;55800;54.272;18.558;2022-12-18T04:00:00;26.00;;;13.67;;
68806;SDS011;55800;54.272;18.558;2022-12-18T04:02:42;28.13;;;14.70;;
68806;SDS011;55800;54.272;18.558;2022-12-18T04:05:20;33.13;;;13.67;;
68806;SDS011;55800;54.272;18.558;2022-12-18T04:07:54;20.20;;;11.43;;
68806;SDS011;55800;54.272;18.558;2022-12-18T04:10:26;11.13;;;7.20;;
68806;SDS011;55800;54.272;18.558;2022-12-18T04:12:57;23.83;;;11.40;;
68806;SDS011;55800;54.272;18.558;2022-12-18T04:15:27;18.97;;;10.47;;
68806;SDS011;55800;54.272;18.558;2022-12-18T04:17:59;19.23;;;9.53;;
68806;SDS011;55800;54.272;18.558;2022-12-18T04:20:35;20.33;;;10.07;;
68806;SDS011;55800;54.272;18.558;2022-12-18T04:23:05;16.60;;;10.63;;
68806;SDS011;55800;54.272;18.558;2022-12-18T04:25:35;17.27;;;10.43;;
68806;SDS011;55800;54.272;18.558;2022-12-18T04:28:09;19.67;;;10.47;;
68806;SDS011;55800;54.272;18.558;2022-12-18T04:30:39;21.33;;;10.43;;
68806;SDS011;55800;54.272;18.558;2022-12-18T04:33:10;16.90;;;9.70;;
68806;SDS011;55800;54.272;18.558;2022-12-18T04:35:41;15.90;;;11.03;;
68806;SDS011;55800;54.272;18.558;2022-12-18T04:38:12;16.17;;;11.63;;
68806;SDS011;55800;54.272;18.558;2022-12-18T04:40:42;16.73;;;10.65;;
68806;SDS011;55800;54.272;18.558;2022-12-18T04:43:20;22.90;;;12.30;;
68806;SDS011;55800;54.272;18.558;2022-12-18T04:45:49;20.23;;;11.38;;
68806;SDS011;55800;54.272;18.558;2022-12-18T04:48:20;20.45;;;10.57;;
68806;SDS011;55800;54.272;18.558;2022-12-18T04:50:49;19.53;;;10.70;;
68806;SDS011;55800;54.272;18.558;2022-12-18T04:53:19;18.85;;;10.02;;
68806;SDS011;55800;54.272;18.558;2022-12-18T04:55:48;16.02;;;10.73;;
68806;SDS011;55800;54.272;18.558;2022-12-18T04:58:18;15.13;;;8.90;;
68806;SDS011;55800;54.272;18.558;2022-12-18T05:00:47;17.00;;;9.60;;
68806;SDS011;55800;54.272;18.558;2022-12-18T05:03:17;20.67;;;11.88;;
68806;SDS011;55800;54.272;18.558;2022-12-18T05:05:49;17.93;;;10.53;;
68806;SDS011;55800;54.272;18.558;2022-12-18T05:08:19;19.57;;;10.47;;
68806;SDS011;55800;54.272;18.558;2022-12-18T05:10:48;22.45;;;11.32;;
68806;SDS011;55800;54.272;18.558;2022-12-18T05:13:18;18.73;;;11.48;;
68806;SDS011;55800;54.272;18.558;2022-12-18T05:15:50;15.47;;;9.90;;
68806;SDS011;55800;54.272;18.558;2022-12-18T05:18:22;16.23;;;10.70;;
68806;SDS011;55800;54.272;18.558;2022-12-18T05:20:52;14.43;;;9.67;;
68806;SDS011;55800;54.272;18.558;2022-12-18T05:23:22;24.10;;;10.90;;
68806;SDS011;55800;54.272;18.558;2022-12-18T05:25:53;23.13;;;11.30;;
68806;SDS011;55800;54.272;18.558;2022-12-18T05:28:24;14.63;;;10.10;;
68806;SDS011;55800;54.272;18.558;2022-12-18T05:30:55;12.97;;;8.53;;
68806;SDS011;55800;54.272;18.558;2022-12-18T05:33:29;20.70;;;11.03;;
68806;SDS011;55800;54.272;18.558;2022-12-18T05:36:03;18.40;;;9.73;;
68806;SDS011;55800;54.272;18.558;2022-12-18T05:38:35;19.70;;;11.03;;
68806;SDS011;55800;54.272;18.558;2022-12-18T05:41:05;17.60;;;10.23;;
68806;SDS011;55800;54.272;18.558;2022-12-18T05:46:07;14.73;;;8.17;;
68806;SDS011;55800;54.272;18.558;2022-12-18T05:48:40;18.67;;;10.73;;
68806;SDS011;55800;54.272;18.558;2022-12-18T05:51:11;22.20;;;10.67;;
68806;SDS011;55800;54.272;18.558;2022-12-18T05:53:42;15.63;;;9.83;;
68806;SDS011;55800;54.272;18.558;2022-12-18T05:58:42;13.20;;;9.57;;
68806;SDS011;55800;54.272;18.558;2022-12-18T06:01:12;19.50;;;9.88;;
68806;SDS011;55800;54.272;18.558;2022-12-18T06:03:44;21.23;;;10.53;;
68806;SDS011;55800;54.272;18.558;2022-12-18T06:06:14;14.63;;;9.60;;
68806;SDS011;55800;54.272;18.558;2022-12-18T06:08:47;14.83;;;10.10;;
68806;SDS011;55800;54.272;18.558;2022-12-18T06:11:18;18.67;;;9.63;;
68806;SDS011;55800;54.272;18.558;2022-12-18T06:13:50;19.87;;;11.27;;
68806;SDS011;55800;54.272;18.558;2022-12-18T06:16:24;19.30;;;10.13;;
68806;SDS011;55800;54.272;18.558;2022-12-18T06:18:57;17.17;;;9.63;;
68806;SDS011;55800;54.272;18.558;2022-12-18T06:21:27;18.60;;;9.77;;
68806;SDS011;55800;54.272;18.558;2022-12-18T06:23:58;17.27;;;8.93;;
68806;SDS011;55800;54.272;18.558;2022-12-18T06:28:57;15.63;;;9.93;;
68806;SDS011;55800;54.272;18.558;2022-12-18T06:31:26;11.80;;;9.23;;
68806;SDS011;55800;54.272;18.558;2022-12-18T06:33:58;12.70;;;9.15;;
68806;SDS011;55800;54.272;18.558;2022-12-18T06:36:27;17.87;;;10.57;;
68806;SDS011;55800;54.272;18.558;2022-12-18T06:38:57;18.48;;;11.48;;
68806;SDS011;55800;54.272;18.558;2022-12-18T06:41:26;16.20;;;10.13;;
68806;SDS011;55800;54.272;18.558;2022-12-18T06:43:57;13.57;;;9.15;;
68806;SDS011;55800;54.272;18.558;2022-12-18T06:46:26;13.23;;;9.73;;
68806;SDS011;55800;54.272;18.558;2022-12-18T06:48:56;20.08;;;10.85;;
68806;SDS011;55800;54.272;18.558;2022-12-18T06:51:26;24.70;;;12.10;;
68806;SDS011;55800;54.272;18.558;2022-12-18T06:53:56;16.40;;;10.20;;
68806;SDS011;55800;54.272;18.558;2022-12-18T06:56:25;22.58;;;10.48;;
68806;SDS011;55800;54.272;18.558;2022-12-18T06:58:55;25.33;;;10.48;;
68806;SDS011;55800;54.272;18.558;2022-12-18T07:01:24;14.77;;;9.77;;
68806;SDS011;55800;54.272;18.558;2022-12-18T07:03:54;20.10;;;12.05;;
68806;SDS011;55800;54.272;18.558;2022-12-18T07:06:26;22.53;;;12.10;;
68806;SDS011;55800;54.272;18.558;2022-12-18T07:08:55;17.97;;;12.17;;
68806;SDS011;55800;54.272;18.558;2022-12-18T07:11:24;17.63;;;11.55;;
68806;SDS011;55800;54.272;18.558;2022-12-18T07:13:54;16.17;;;9.80;;
68806;SDS011;55800;54.272;18.558;2022-12-18T07:18:55;20.30;;;11.20;;
68806;SDS011;55800;54.272;18.558;2022-12-18T07:21:26;26.10;;;12.38;;
68806;SDS011;55800;54.272;18.558;2022-12-18T07:23:56;21.17;;;11.43;;
68806;SDS011;55800;54.272;18.558;2022-12-18T07:26:25;16.83;;;10.77;;
68806;SDS011;55800;54.272;18.558;2022-12-18T07:28:55;20.05;;;13.18;;
68806;SDS011;55800;54.272;18.558;2022-12-18T07:33:55;30.95;;;12.93;;
68806;SDS011;55800;54.272;18.558;2022-12-18T07:36:25;23.52;;;12.23;;
68806;SDS011;55800;54.272;18.558;2022-12-18T07:38:56;31.13;;;14.43;;
68806;SDS011;55800;54.272;18.558;2022-12-18T07:41:25;23.00;;;14.25;;
68806;SDS011;55800;54.272;18.558;2022-12-18T07:43:55;19.08;;;10.57;;
68806;SDS011;55800;54.272;18.558;2022-12-18T07:46:24;21.73;;;11.02;;
68806;SDS011;55800;54.272;18.558;2022-12-18T07:48:55;18.73;;;10.50;;
68806;SDS011;55800;54.272;18.558;2022-12-18T07:51:24;19.02;;;10.98;;
68806;SDS011;55800;54.272;18.558;2022-12-18T07:53:55;21.90;;;12.35;;
68806;SDS011;55800;54.272;18.558;2022-12-18T07:56:26;18.23;;;11.53;;
68806;SDS011;55800;54.272;18.558;2022-12-18T07:58:57;19.40;;;11.30;;
68806;SDS011;55800;54.272;18.558;2022-12-18T08:01:29;17.37;;;9.83;;
68806;SDS011;55800;54.272;18.558;2022-12-18T08:03:59;19.70;;;12.52;;
68806;SDS011;55800;54.272;18.558;2022-12-18T08:06:29;20.25;;;12.18;;
68806;SDS011;55800;54.272;18.558;2022-12-18T08:08:59;24.13;;;12.00;;
68806;SDS011;55800;54.272;18.558;2022-12-18T08:11:29;17.20;;;11.10;;
68806;SDS011;55800;54.272;18.558;2022-12-18T08:13:59;23.50;;;11.80;;
68806;SDS011;55800;54.272;18.558;2022-12-18T08:16:28;18.33;;;12.68;;
68806;SDS011;55800;54.272;18.558;2022-12-18T08:21:28;18.37;;;10.57;;
68806;SDS011;55800;54.272;18.558;2022-12-18T08:24:00;20.57;;;11.27;;
68806;SDS011;55800;54.272;18.558;2022-12-18T08:26:30;25.27;;;12.37;;
68806;SDS011;55800;54.272;18.558;2022-12-18T08:29:00;19.88;;;10.48;;
68806;SDS011;55800;54.272;18.558;2022-12-18T08:31:29;23.38;;;11.80;;
68806;SDS011;55800;54.272;18.558;2022-12-18T08:33:59;18.57;;;11.93;;
68806;SDS011;55800;54.272;18.558;2022-12-18T08:36:29;22.08;;;12.55;;
68806;SDS011;55800;54.272;18.558;2022-12-18T08:39:00;24.02;;;12.00;;
68806;SDS011;55800;54.272;18.558;2022-12-18T08:41:29;18.73;;;11.17;;
68806;SDS011;55800;54.272;18.558;2022-12-18T08:44:00;16.53;;;11.97;;
68806;SDS011;55800;54.272;18.558;2022-12-18T08:46:46;18.93;;;12.43;;
68806;SDS011;55800;54.272;18.558;2022-12-18T08:49:15;20.30;;;11.15;;
68806;SDS011;55800;54.272;18.558;2022-12-18T08:51:45;23.42;;;11.65;;
68806;SDS011;55800;54.272;18.558;2022-12-18T08:54:16;20.42;;;12.40;;
68806;SDS011;55800;54.272;18.558;2022-12-18T08:56:45;21.30;;;10.87;;
68806;SDS011;55800;54.272;18.558;2022-12-18T08:59:14;21.00;;;11.77;;
68806;SDS011;55800;54.272;18.558;2022-12-18T09:01:46;16.73;;;11.30;;
68806;SDS011;55800;54.272;18.558;2022-12-18T09:04:17;21.40;;;11.30;;
68806;SDS011;55800;54.272;18.558;2022-12-18T09:06:46;21.05;;;9.85;;
68806;SDS011;55800;54.272;18.558;2022-12-18T09:09:17;27.80;;;15.00;;
68806;SDS011;55800;54.272;18.558;2022-12-18T09:11:46;20.57;;;11.87;;
68806;SDS011;55800;54.272;18.558;2022-12-18T09:14:16;17.23;;;9.52;;
68806;SDS011;55800;54.272;18.558;2022-12-18T09:16:45;30.75;;;12.88;;
68806;SDS011;55800;54.272;18.558;2022-12-18T09:19:15;22.20;;;12.57;;
68806;SDS011;55800;54.272;18.558;2022-12-18T09:21:44;22.13;;;13.45;;
68806;SDS011;55800;54.272;18.558;2022-12-18T09:24:15;21.60;;;13.57;;
68806;SDS011;55800;54.272;18.558;2022-12-18T09:26:46;26.10;;;13.13;;
68806;SDS011;55800;54.272;18.558;2022-12-18T09:29:21;22.67;;;13.33;;
68806;SDS011;55800;54.272;18.558;2022-12-18T09:31:51;29.80;;;12.23;;
68806;SDS011;55800;54.272;18.558;2022-12-18T09:34:20;19.05;;;10.57;;
68806;SDS011;55800;54.272;18.558;2022-12-18T09:36:49;16.38;;;10.90;;
68806;SDS011;55800;54.272;18.558;2022-12-18T09:39:20;15.65;;;9.23;;
68806;SDS011;55800;54.272;18.558;2022-12-18T09:41:50;20.17;;;11.03;;
68806;SDS011;55800;54.272;18.558;2022-12-18T09:44:24;17.40;;;9.70;;
68806;SDS011;55800;54.272;18.558;2022-12-18T09:47:06;23.30;;;13.07;;
68806;SDS011;55800;54.272;18.558;2022-12-18T09:49:41;19.60;;;10.77;;
68806;SDS011;55800;54.272;18.558;2022-12-18T09:52:14;21.53;;;10.03;;
68806;SDS011;55800;54.272;18.558;2022-12-18T09:54:50;28.30;;;13.23;;
68806;SDS011;55800;54.272;18.558;2022-12-18T09:57:24;22.50;;;15.50;;
68806;SDS011;55800;54.272;18.558;2022-12-18T09:59:55;26.02;;;13.77;;
68806;SDS011;55800;54.272;18.558;2022-12-18T10:02:37;24.80;;;11.75;;
68806;SDS011;55800;54.272;18.558;2022-12-18T10:07:43;23.35;;;14.23;;
68806;SDS011;55800;54.272;18.558;2022-12-18T10:12:57;19.90;;;12.03;;
68806;SDS011;55800;54.272;18.558;2022-12-18T10:15:38;23.83;;;13.68;;
68806;SDS011;55800;54.272;18.558;2022-12-18T10:18:17;22.67;;;12.10;;
68806;SDS011;55800;54.272;18.558;2022-12-18T10:21:00;21.65;;;11.70;;
68806;SDS011;55800;54.272;18.558;2022-12-18T10:23:38;32.97;;;14.57;;
68806;SDS011;55800;54.272;18.558;2022-12-18T10:26:18;26.73;;;11.97;;
68806;SDS011;55800;54.272;18.558;2022-12-18T10:28:48;27.70;;;13.30;;
68806;SDS011;55800;54.272;18.558;2022-12-18T10:31:20;25.20;;;13.02;;
68806;SDS011;55800;54.272;18.558;2022-12-18T10:33:51;33.72;;;14.48;;
68806;SDS011;55800;54.272;18.558;2022-12-18T10:36:23;16.38;;;11.13;;
68806;SDS011;55800;54.272;18.558;2022-12-18T10:38:53;14.68;;;8.55;;
68806;SDS011;55800;54.272;18.558;2022-12-18T10:41:37;13.40;;;8.30;;
68806;SDS011;55800;54.272;18.558;2022-12-18T10:44:10;25.67;;;11.50;;
68806;SDS011;55800;54.272;18.558;2022-12-18T10:46:44;10.32;;;6.97;;
68806;SDS011;55800;54.272;18.558;2022-12-18T10:49:19;22.85;;;11.82;;
68806;SDS011;55800;54.272;18.558;2022-12-18T10:51:51;16.45;;;9.77;;
68806;SDS011;55800;54.272;18.558;2022-12-18T10:54:33;22.75;;;13.73;;
68806;SDS011;55800;54.272;18.558;2022-12-18T10:57:19;25.83;;;13.20;;
68806;SDS011;55800;54.272;18.558;2022-12-18T11:00:22;18.60;;;8.02;;
68806;SDS011;55800;54.272;18.558;2022-12-18T11:02:56;20.75;;;10.90;;
68806;SDS011;55800;54.272;18.558;2022-12-18T11:05:27;18.88;;;10.57;;
68806;SDS011;55800;54.272;18.558;2022-12-18T11:07:59;25.42;;;12.63;;
68806;SDS011;55800;54.272;18.558;2022-12-18T11:10:30;21.52;;;10.65;;
68806;SDS011;55800;54.272;18.558;2022-12-18T11:13:16;21.63;;;10.90;;
68806;SDS011;55800;54.272;18.558;2022-12-18T11:15:48;23.40;;;11.82;;
68806;SDS011;55800;54.272;18.558;2022-12-18T11:18:20;26.90;;;10.98;;
68806;SDS011;55800;54.272;18.558;2022-12-18T11:20:54;16.50;;;10.88;;
68806;SDS011;55800;54.272;18.558;2022-12-18T11:23:26;18.27;;;8.52;;
68806;SDS011;55800;54.272;18.558;2022-12-18T11:25:57;21.85;;;12.30;;
68806;SDS011;55800;54.272;18.558;2022-12-18T11:28:35;20.67;;;10.82;;
68806;SDS011;55800;54.272;18.558;2022-12-18T11:31:09;27.65;;;12.63;;
68806;SDS011;55800;54.272;18.558;2022-12-18T11:33:53;20.77;;;10.85;;
68806;SDS011;55800;54.272;18.558;2022-12-18T11:36:49;15.23;;;6.20;;
68806;SDS011;55800;54.272;18.558;2022-12-18T11:41:53;18.48;;;10.30;;
68806;SDS011;55800;54.272;18.558;2022-12-18T11:44:42;22.42;;;9.60;;
68806;SDS011;55800;54.272;18.558;2022-12-18T11:47:18;13.45;;;8.43;;
68806;SDS011;55800;54.272;18.558;2022-12-18T11:49:53;9.63;;;6.80;;
68806;SDS011;55800;54.272;18.558;2022-12-18T11:52:31;21.50;;;8.02;;
68806;SDS011;55800;54.272;18.558;2022-12-18T11:55:09;19.55;;;10.48;;
68806;SDS011;55800;54.272;18.558;2022-12-18T11:57:44;16.30;;;10.93;;
68806;SDS011;55800;54.272;18.558;2022-12-18T12:00:25;22.92;;;11.32;;
68806;SDS011;55800;54.272;18.558;2022-12-18T12:03:04;19.23;;;10.13;;
68806;SDS011;55800;54.272;18.558;2022-12-18T12:05:57;15.23;;;6.53;;
68806;SDS011;55800;54.272;18.558;2022-12-18T12:08:37;14.77;;;10.05;;
68806;SDS011;55800;54.272;18.558;2022-12-18T12:11:22;11.57;;;7.15;;
68806;SDS011;55800;54.272;18.558;2022-12-18T12:14:17;22.00;;;9.75;;
68806;SDS011;55800;54.272;18.558;2022-12-18T12:16:59;21.15;;;11.38;;
68806;SDS011;55800;54.272;18.558;2022-12-18T12:19:41;20.80;;;11.65;;
68806;SDS011;55800;54.272;18.558;2022-12-18T12:22:18;19.73;;;10.90;;
68806;SDS011;55800;54.272;18.558;2022-12-18T12:25:01;19.67;;;9.77;;
68806;SDS011;55800;54.272;18.558;2022-12-18T12:27:49;19.02;;;10.05;;
68806;SDS011;55800;54.272;18.558;2022-12-18T12:30:29;16.20;;;9.48;;
68806;SDS011;55800;54.272;18.558;2022-12-18T12:33:11;19.90;;;9.57;;
68806;SDS011;55800;54.272;18.558;2022-12-18T12:35:51;10.32;;;6.20;;
68806;SDS011;55800;54.272;18.558;2022-12-18T12:38:30;12.88;;;6.40;;
68806;SDS011;55800;54.272;18.558;2022-12-18T12:41:04;15.48;;;9.48;;
68806;SDS011;55800;54.272;18.558;2022-12-18T12:43:57;22.50;;;9.82;;
68806;SDS011;55800;54.272;18.558;2022-12-18T12:46:29;23.35;;;11.80;;
68806;SDS011;55800;54.272;18.558;2022-12-18T12:49:08;13.75;;;8.13;;
68806;SDS011;55800;54.272;18.558;2022-12-18T12:51:43;15.52;;;8.75;;
68806;SDS011;55800;54.272;18.558;2022-12-18T12:54:18;16.00;;;8.50;;
68806;SDS011;55800;54.272;18.558;2022-12-18T12:56:50;23.63;;;11.90;;
68806;SDS011;55800;54.272;18.558;2022-12-18T12:59:27;21.90;;;12.40;;
68806;SDS011;55800;54.272;18.558;2022-12-18T13:02:09;25.85;;;12.48;;
68806;SDS011;55800;54.272;18.558;2022-12-18T13:04:52;17.52;;;9.98;;
68806;SDS011;55800;54.272;18.558;2022-12-18T13:07:32;22.45;;;11.40;;
68806;SDS011;55800;54.272;18.558;2022-12-18T13:10:19;20.00;;;10.95;;
68806;SDS011;55800;54.272;18.558;2022-12-18T13:12:55;19.38;;;13.43;;
68806;SDS011;55800;54.272;18.558;2022-12-18T13:15:26;25.30;;;12.43;;
68806;SDS011;55800;54.272;18.558;2022-12-18T13:18:10;23.90;;;12.75;;
68806;SDS011;55800;54.272;18.558;2022-12-18T13:20:50;17.40;;;12.07;;
68806;SDS011;55800;54.272;18.558;2022-12-18T13:23:34;18.95;;;10.70;;
68806;SDS011;55800;54.272;18.558;2022-12-18T13:29:05;22.27;;;12.00;;
68806;SDS011;55800;54.272;18.558;2022-12-18T13:37:55;23.92;;;13.05;;
68806;SDS011;55800;54.272;18.558;2022-12-18T13:40:53;26.23;;;13.82;;
68806;SDS011;55800;54.272;18.558;2022-12-18T13:43:29;23.63;;;12.82;;
68806;SDS011;55800;54.272;18.558;2022-12-18T13:46:06;24.08;;;12.20;;
68806;SDS011;55800;54.272;18.558;2022-12-18T13:48:55;21.58;;;10.65;;
68806;SDS011;55800;54.272;18.558;2022-12-18T13:51:31;20.77;;;11.15;;
68806;SDS011;55800;54.272;18.558;2022-12-18T13:54:11;18.17;;;12.50;;
68806;SDS011;55800;54.272;18.558;2022-12-18T13:56:47;21.83;;;11.77;;
68806;SDS011;55800;54.272;18.558;2022-12-18T13:59:19;26.20;;;11.60;;
68806;SDS011;55800;54.272;18.558;2022-12-18T14:01:52;20.45;;;12.18;;
68806;SDS011;55800;54.272;18.558;2022-12-18T14:04:26;25.35;;;12.45;;
68806;SDS011;55800;54.272;18.558;2022-12-18T14:06:57;27.15;;;12.07;;
68806;SDS011;55800;54.272;18.558;2022-12-18T14:09:34;20.05;;;10.63;;
68806;SDS011;55800;54.272;18.558;2022-12-18T14:12:06;25.40;;;14.55;;
68806;SDS011;55800;54.272;18.558;2022-12-18T14:15:00;21.50;;;13.10;;
68806;SDS011;55800;54.272;18.558;2022-12-18T14:17:33;22.58;;;11.73;;
68806;SDS011;55800;54.272;18.558;2022-12-18T14:20:04;27.60;;;15.18;;
68806;SDS011;55800;54.272;18.558;2022-12-18T14:22:43;29.20;;;13.30;;
68806;SDS011;55800;54.272;18.558;2022-12-18T14:25:16;28.40;;;13.65;;
68806;SDS011;55800;54.272;18.558;2022-12-18T14:27:48;27.05;;;13.73;;
68806;SDS011;55800;54.272;18.558;2022-12-18T14:30:24;26.73;;;13.43;;
68806;SDS011;55800;54.272;18.558;2022-12-18T14:33:03;28.60;;;13.73;;
68806;SDS011;55800;54.272;18.558;2022-12-18T14:35:35;25.20;;;13.90;;
68806;SDS011;55800;54.272;18.558;2022-12-18T14:38:10;20.75;;;11.63;;
68806;SDS011;55800;54.272;18.558;2022-12-18T14:40:53;29.08;;;14.65;;
68806;SDS011;55800;54.272;18.558;2022-12-18T14:43:24;21.75;;;12.05;;
68806;SDS011;55800;54.272;18.558;2022-12-18T14:45:54;25.92;;;13.43;;
68806;SDS011;55800;54.272;18.558;2022-12-18T14:48:32;28.67;;;15.30;;
68806;SDS011;55800;54.272;18.558;2022-12-18T14:51:05;27.50;;;15.23;;
68806;SDS011;55800;54.272;18.558;2022-12-18T14:53:44;30.95;;;14.93;;
68806;SDS011;55800;54.272;18.558;2022-12-18T14:56:24;36.40;;;18.25;;
68806;SDS011;55800;54.272;18.558;2022-12-18T14:58:55;34.45;;;20.05;;
68806;SDS011;55800;54.272;18.558;2022-12-18T15:01:28;35.97;;;18.02;;
68806;SDS011;55800;54.272;18.558;2022-12-18T15:04:00;29.02;;;16.85;;
68806;SDS011;55800;54.272;18.558;2022-12-18T15:06:33;34.73;;;17.87;;
68806;SDS011;55800;54.272;18.558;2022-12-18T15:09:05;36.05;;;19.95;;
68806;SDS011;55800;54.272;18.558;2022-12-18T15:11:54;33.47;;;17.37;;
68806;SDS011;55800;54.272;18.558;2022-12-18T15:14:35;38.47;;;19.27;;
68806;SDS011;55800;54.272;18.558;2022-12-18T15:17:14;35.97;;;18.63;;
68806;SDS011;55800;54.272;18.558;2022-12-18T15:19:46;42.30;;;18.00;;
68806;SDS011;55800;54.272;18.558;2022-12-18T15:22:21;29.83;;;16.80;;
68806;SDS011;55800;54.272;18.558;2022-12-18T15:24:53;30.30;;;17.03;;
68806;SDS011;55800;54.272;18.558;2022-12-18T15:27:29;32.67;;;17.93;;
68806;SDS011;55800;54.272;18.558;2022-12-18T15:30:11;34.13;;;16.93;;